sensor_id;sensor_type;location;lat;lon;timestamp;pressure;altitude;pressure_sealevel;temperature;humidity
11487;BME280;10510;47.942;9.442;2023-11-21T00:01:29;94085.03;;;6.07;100.00
11487;BME280;10510;47.942;9.442;2023-11-21T00:03:30;94084.22;;;6.07;100.00
11487;BME280;10510;47.942;9.442;2023-11-21T00:05:31;94080.00;;;6.06;100.00
11487;BME280;10510;47.942;9.442;2023-11-21T00:07:31;94087.97;;;6.04;100.00
11487;BME280;10510;47.942;9.442;2023-11-21T00:09:32;94077.59;;;6.04;100.00
11487;BME280;10510;47.942;9.442;2023-11-21T00:11:32;94087.50;;;6.01;100.00
11487;BME280;10510;47.942;9.442;2023-11-21T00:13:33;94099.81;;;5.99;100.00
11487;BME280;10510;47.942;9.442;2023-11-21T00:15:33;94084.75;;;5.94;100.00
11487;BME280;10510;47.942;9.442;2023-11-21T00:17:34;94083.28;;;5.91;100.00
11487;BME280;10510;47.942;9.442;2023-11-21T00:19:34;94092.03;;;5.90;100.00
11487;BME280;10510;47.942;9.442;2023-11-21T00:21:35;94089.44;;;5.90;100.00
11487;BME280;10510;47.942;9.442;2023-11-21T00:23:35;94089.78;;;5.87;100.00
11487;BME280;10510;47.942;9.442;2023-11-21T00:25:35;94095.13;;;5.86;100.00
11487;BME280;10510;47.942;9.442;2023-11-21T00:27:36;94090.09;;;5.84;100.00
11487;BME280;10510;47.942;9.442;2023-11-21T00:29:36;94087.69;;;5.83;100.00
11487;BME280;10510;47.942;9.442;2023-11-21T00:31:36;94082.66;;;5.81;100.00
11487;BME280;10510;47.942;9.442;2023-11-21T00:33:37;94080.06;;;5.81;100.00
11487;BME280;10510;47.942;9.442;2023-11-21T00:35:38;94085.44;;;5.80;100.00
11487;BME280;10510;47.942;9.442;2023-11-21T00:37:38;94078.16;;;5.75;100.00
11487;BME280;10510;47.942;9.442;2023-11-21T00:39:39;94069.91;;;5.72;100.00
11487;BME280;10510;47.942;9.442;2023-11-21T00:41:39;94077.69;;;5.72;100.00
11487;BME280;10510;47.942;9.442;2023-11-21T00:43:40;94073.63;;;5.69;100.00
11487;BME280;10510;47.942;9.442;2023-11-21T00:45:40;94080.59;;;5.68;100.00
11487;BME280;10510;47.942;9.442;2023-11-21T00:47:40;94078.81;;;5.69;100.00
11487;BME280;10510;47.942;9.442;2023-11-21T00:49:41;94075.22;;;5.70;100.00
11487;BME280;10510;47.942;9.442;2023-11-21T00:51:41;94066.66;;;5.69;100.00
11487;BME280;10510;47.942;9.442;2023-11-21T00:53:41;94064.06;;;5.69;100.00
11487;BME280;10510;47.942;9.442;2023-11-21T00:55:42;94067.63;;;5.68;100.00
11487;BME280;10510;47.942;9.442;2023-11-21T00:57:42;94059.69;;;5.70;100.00
11487;BME280;10510;47.942;9.442;2023-11-21T00:59:42;94066.31;;;5.73;100.00
11487;BME280;10510;47.942;9.442;2023-11-21T01:01:43;94072.97;;;5.75;100.00
11487;BME280;10510;47.942;9.442;2023-11-21T01:03:43;94076.19;;;5.77;100.00
11487;BME280;10510;47.942;9.442;2023-11-21T01:05:43;94071.03;;;5.77;100.00
11487;BME280;10510;47.942;9.442;2023-11-21T01:07:44;94060.66;;;5.77;100.00
11487;BME280;10510;47.942;9.442;2023-11-21T01:09:44;94064.19;;;5.76;100.00
11487;BME280;10510;47.942;9.442;2023-11-21T01:11:44;94062.25;;;5.78;100.00
11487;BME280;10510;47.942;9.442;2023-11-21T01:13:45;94061.25;;;5.79;100.00
11487;BME280;10510;47.942;9.442;2023-11-21T01:15:45;94060.47;;;5.79;100.00
11487;BME280;10510;47.942;9.442;2023-11-21T01:17:47;94071.63;;;5.79;100.00
11487;BME280;10510;47.942;9.442;2023-11-21T01:19:47;94063.69;;;5.81;100.00
11487;BME280;10510;47.942;9.442;2023-11-21T01:21:47;94065.16;;;5.83;100.00
11487;BME280;10510;47.942;9.442;2023-11-21T01:23:47;94071.16;;;5.84;100.00
11487;BME280;10510;47.942;9.442;2023-11-21T01:25:48;94078.94;;;5.84;100.00
11487;BME280;10510;47.942;9.442;2023-11-21T01:27:48;94077.31;;;5.83;100.00
11487;BME280;10510;47.942;9.442;2023-11-21T01:29:49;94078.28;;;5.82;100.00
11487;BME280;10510;47.942;9.442;2023-11-21T01:31:49;94081.06;;;5.80;100.00
11487;BME280;10510;47.942;9.442;2023-11-21T01:33:49;94083.78;;;5.79;100.00
11487;BME280;10510;47.942;9.442;2023-11-21T01:35:49;94081.38;;;5.77;100.00
11487;BME280;10510;47.942;9.442;2023-11-21T01:37:50;94081.38;;;5.77;100.00
11487;BME280;10510;47.942;9.442;2023-11-21T01:39:51;94080.59;;;5.77;100.00
11487;BME280;10510;47.942;9.442;2023-11-21T01:41:51;94082.53;;;5.75;100.00
11487;BME280;10510;47.942;9.442;2023-11-21T01:43:52;94089.66;;;5.73;100.00
11487;BME280;10510;47.942;9.442;2023-11-21T01:45:54;94092.44;;;5.71;100.00
11487;BME280;10510;47.942;9.442;2023-11-21T01:47:57;94094.69;;;5.66;100.00
11487;BME280;10510;47.942;9.442;2023-11-21T01:50:01;94093.25;;;5.63;100.00
11487;BME280;10510;47.942;9.442;2023-11-21T01:52:04;94090.19;;;5.60;100.00
11487;BME280;10510;47.942;9.442;2023-11-21T01:54:06;94100.72;;;5.58;100.00
11487;BME280;10510;47.942;9.442;2023-11-21T01:56:07;94095.06;;;5.55;100.00
11487;BME280;10510;47.942;9.442;2023-11-21T01:58:08;94089.41;;;5.51;100.00
11487;BME280;10510;47.942;9.442;2023-11-21T02:00:09;94085.34;;;5.49;100.00
11487;BME280;10510;47.942;9.442;2023-11-21T02:02:15;94089.06;;;5.46;100.00
11487;BME280;10510;47.942;9.442;2023-11-21T02:04:16;94082.28;;;5.45;100.00
11487;BME280;10510;47.942;9.442;2023-11-21T02:06:17;94086.00;;;5.42;100.00
11487;BME280;10510;47.942;9.442;2023-11-21T02:08:19;94080.81;;;5.42;100.00
11487;BME280;10510;47.942;9.442;2023-11-21T02:10:19;94080.16;;;5.40;100.00
11487;BME280;10510;47.942;9.442;2023-11-21T02:12:22;94076.97;;;5.38;100.00
11487;BME280;10510;47.942;9.442;2023-11-21T02:14:27;94075.31;;;5.37;100.00
11487;BME280;10510;47.942;9.442;2023-11-21T02:16:27;94075.50;;;5.36;100.00
11487;BME280;10510;47.942;9.442;2023-11-21T02:18:31;94074.66;;;5.35;100.00
11487;BME280;10510;47.942;9.442;2023-11-21T02:20:32;94067.22;;;5.32;100.00
11487;BME280;10510;47.942;9.442;2023-11-21T02:22:39;94070.81;;;5.31;100.00
11487;BME280;10510;47.942;9.442;2023-11-21T02:24:41;94068.38;;;5.30;100.00
11487;BME280;10510;47.942;9.442;2023-11-21T02:26:42;94070.16;;;5.29;100.00
11487;BME280;10510;47.942;9.442;2023-11-21T02:28:42;94067.56;;;5.29;100.00
11487;BME280;10510;47.942;9.442;2023-11-21T02:30:42;94068.53;;;5.28;100.00
11487;BME280;10510;47.942;9.442;2023-11-21T02:32:43;94063.69;;;5.25;100.00
11487;BME280;10510;47.942;9.442;2023-11-21T02:34:44;94068.88;;;5.25;100.00
11487;BME280;10510;47.942;9.442;2023-11-21T02:36:44;94061.91;;;5.26;100.00
11487;BME280;10510;47.942;9.442;2023-11-21T02:38:44;94064.66;;;5.24;100.00
11487;BME280;10510;47.942;9.442;2023-11-21T02:40:45;94063.38;;;5.20;100.00
11487;BME280;10510;47.942;9.442;2023-11-21T02:42:49;94064.34;;;5.19;100.00
11487;BME280;10510;47.942;9.442;2023-11-21T02:44:52;94057.56;;;5.18;100.00
11487;BME280;10510;47.942;9.442;2023-11-21T02:46:52;94061.09;;;5.17;100.00
11487;BME280;10510;47.942;9.442;2023-11-21T02:48:53;94056.25;;;5.14;100.00
11487;BME280;10510;47.942;9.442;2023-11-21T02:50:56;94061.59;;;5.12;100.00
11487;BME280;10510;47.942;9.442;2023-11-21T02:52:56;94066.78;;;5.12;100.00
11487;BME280;10510;47.942;9.442;2023-11-21T02:54:58;94059.16;;;5.11;100.00
11487;BME280;10510;47.942;9.442;2023-11-21T02:56:58;94059.34;;;5.09;100.00
11487;BME280;10510;47.942;9.442;2023-11-21T02:59:00;94048.34;;;5.07;100.00
11487;BME280;10510;47.942;9.442;2023-11-21T03:01:00;94051.91;;;5.06;100.00
11487;BME280;10510;47.942;9.442;2023-11-21T03:03:00;94049.47;;;5.05;100.00
11487;BME280;10510;47.942;9.442;2023-11-21T03:05:01;94054.00;;;5.03;100.00
11487;BME280;10510;47.942;9.442;2023-11-21T03:07:01;94050.78;;;5.00;100.00
11487;BME280;10510;47.942;9.442;2023-11-21T03:09:01;94047.53;;;4.98;100.00
11487;BME280;10510;47.942;9.442;2023-11-21T03:11:02;94049.47;;;4.96;100.00
11487;BME280;10510;47.942;9.442;2023-11-21T03:13:03;94048.84;;;4.94;100.00
11487;BME280;10510;47.942;9.442;2023-11-21T03:15:07;94043.66;;;4.94;100.00
11487;BME280;10510;47.942;9.442;2023-11-21T03:17:08;94053.19;;;4.94;100.00
11487;BME280;10510;47.942;9.442;2023-11-21T03:19:08;94045.59;;;4.92;100.00
11487;BME280;10510;47.942;9.442;2023-11-21T03:21:09;94055.94;;;4.92;100.00
11487;BME280;10510;47.942;9.442;2023-11-21T03:23:09;94056.75;;;4.93;100.00
11487;BME280;10510;47.942;9.442;2023-11-21T03:25:09;94048.84;;;4.94;100.00
11487;BME280;10510;47.942;9.442;2023-11-21T03:27:11;94043.66;;;4.94;100.00
11487;BME280;10510;47.942;9.442;2023-11-21T03:29:12;94046.25;;;4.94;100.00
11487;BME280;10510;47.942;9.442;2023-11-21T03:31:12;94051.56;;;4.93;100.00
11487;BME280;10510;47.942;9.442;2023-11-21T03:33:12;94051.91;;;4.90;100.00
11487;BME280;10510;47.942;9.442;2023-11-21T03:35:13;94040.88;;;4.88;100.00
11487;BME280;10510;47.942;9.442;2023-11-21T03:37:13;94046.25;;;4.86;100.00
11487;BME280;10510;47.942;9.442;2023-11-21T03:39:13;94047.38;;;4.84;100.00
11487;BME280;10510;47.942;9.442;2023-11-21T03:41:14;94043.31;;;4.81;100.00
11487;BME280;10510;47.942;9.442;2023-11-21T03:43:14;94052.06;;;4.80;100.00
11487;BME280;10510;47.942;9.442;2023-11-21T03:45:15;94051.28;;;4.80;100.00
11487;BME280;10510;47.942;9.442;2023-11-21T03:47:15;94045.25;;;4.79;100.00
11487;BME280;10510;47.942;9.442;2023-11-21T03:49:15;94051.41;;;4.78;100.00
11487;BME280;10510;47.942;9.442;2023-11-21T03:51:16;94049.63;;;4.78;100.00
11487;BME280;10510;47.942;9.442;2023-11-21T03:53:16;94051.41;;;4.78;100.00
11487;BME280;10510;47.942;9.442;2023-11-21T03:55:16;94059.19;;;4.78;100.00
11487;BME280;10510;47.942;9.442;2023-11-21T03:57:17;94058.53;;;4.76;100.00
11487;BME280;10510;47.942;9.442;2023-11-21T03:59:17;94054.00;;;4.78;100.00
11487;BME280;10510;47.942;9.442;2023-11-21T04:01:21;94051.59;;;4.76;100.00
11487;BME280;10510;47.942;9.442;2023-11-21T04:03:22;94060.97;;;4.77;100.00
11487;BME280;10510;47.942;9.442;2023-11-21T04:05:23;94055.94;;;4.76;100.00
11487;BME280;10510;47.942;9.442;2023-11-21T04:07:23;94050.94;;;4.74;100.00
11487;BME280;10510;47.942;9.442;2023-11-21T04:09:23;94047.53;;;4.74;100.00
11487;BME280;10510;47.942;9.442;2023-11-21T04:11:25;94044.13;;;4.73;100.00
11487;BME280;10510;47.942;9.442;2023-11-21T04:13:25;94044.31;;;4.72;100.00
11487;BME280;10510;47.942;9.442;2023-11-21T04:15:25;94041.22;;;4.68;100.00
11487;BME280;10510;47.942;9.442;2023-11-21T04:17:26;94038.16;;;4.65;100.00
11487;BME280;10510;47.942;9.442;2023-11-21T04:19:26;94036.69;;;4.62;100.00
11487;BME280;10510;47.942;9.442;2023-11-21T04:21:26;94038.78;;;4.59;100.00
11487;BME280;10510;47.942;9.442;2023-11-21T04:23:28;94043.34;;;4.57;100.00
11487;BME280;10510;47.942;9.442;2023-11-21T04:25:29;94045.13;;;4.56;100.00
11487;BME280;10510;47.942;9.442;2023-11-21T04:27:29;94046.88;;;4.55;100.00
11487;BME280;10510;47.942;9.442;2023-11-21T04:29:30;94049.47;;;4.55;100.00
11487;BME280;10510;47.942;9.442;2023-11-21T04:31:30;94046.06;;;4.55;100.00
11487;BME280;10510;47.942;9.442;2023-11-21T04:33:30;94036.03;;;4.52;100.00
11487;BME280;10510;47.942;9.442;2023-11-21T04:35:31;94043.00;;;4.51;100.00
11487;BME280;10510;47.942;9.442;2023-11-21T04:37:31;94048.31;;;4.50;100.00
11487;BME280;10510;47.942;9.442;2023-11-21T04:39:32;94052.88;;;4.48;100.00
11487;BME280;10510;47.942;9.442;2023-11-21T04:41:32;94046.06;;;4.47;100.00
11487;BME280;10510;47.942;9.442;2023-11-21T04:43:32;94053.19;;;4.45;100.00
11487;BME280;10510;47.942;9.442;2023-11-21T04:45:33;94060.28;;;4.43;100.00
11487;BME280;10510;47.942;9.442;2023-11-21T04:47:33;94051.88;;;4.41;100.00
11487;BME280;10510;47.942;9.442;2023-11-21T04:49:33;94050.25;;;4.40;100.00
11487;BME280;10510;47.942;9.442;2023-11-21T04:51:34;94056.56;;;4.37;100.00
11487;BME280;10510;47.942;9.442;2023-11-21T04:53:34;94055.91;;;4.35;100.00
11487;BME280;10510;47.942;9.442;2023-11-21T04:55:35;94051.88;;;4.32;100.00
11487;BME280;10510;47.942;9.442;2023-11-21T04:57:38;94056.53;;;4.29;100.00
11487;BME280;10510;47.942;9.442;2023-11-21T04:59:40;94055.91;;;4.27;100.00
11487;BME280;10510;47.942;9.442;2023-11-21T05:01:41;94064.63;;;4.26;100.00
11487;BME280;10510;47.942;9.442;2023-11-21T05:03:41;94064.78;;;4.24;100.00
11487;BME280;10510;47.942;9.442;2023-11-21T05:05:41;94058.81;;;4.24;100.00
11487;BME280;10510;47.942;9.442;2023-11-21T05:07:42;94062.53;;;4.21;100.00
11487;BME280;10510;47.942;9.442;2023-11-21T05:09:43;94067.69;;;4.21;100.00
11487;BME280;10510;47.942;9.442;2023-11-21T05:11:46;94062.53;;;4.21;100.00
11487;BME280;10510;47.942;9.442;2023-11-21T05:13:46;94063.31;;;4.22;100.00
11487;BME280;10510;47.942;9.442;2023-11-21T05:15:46;94065.91;;;4.22;100.00
11487;BME280;10510;47.942;9.442;2023-11-21T05:17:46;94072.88;;;4.21;100.00
11487;BME280;10510;47.942;9.442;2023-11-21T05:19:49;94072.69;;;4.23;100.00
11487;BME280;10510;47.942;9.442;2023-11-21T05:21:50;94064.63;;;4.26;100.00
11487;BME280;10510;47.942;9.442;2023-11-21T05:23:50;94069.47;;;4.29;100.00
11487;BME280;10510;47.942;9.442;2023-11-21T05:25:50;94068.22;;;4.33;100.00
11487;BME280;10510;47.942;9.442;2023-11-21T05:27:51;94064.50;;;4.36;100.00
11487;BME280;10510;47.942;9.442;2023-11-21T05:29:51;94065.13;;;4.38;100.00
11487;BME280;10510;47.942;9.442;2023-11-21T05:31:51;94066.59;;;4.40;100.00
11487;BME280;10510;47.942;9.442;2023-11-21T05:33:53;94077.59;;;4.42;100.00
11487;BME280;10510;47.942;9.442;2023-11-21T05:35:53;94068.84;;;4.43;100.00
11487;BME280;10510;47.942;9.442;2023-11-21T05:37:53;94074.69;;;4.45;100.00
11487;BME280;10510;47.942;9.442;2023-11-21T05:39:54;94071.94;;;4.47;100.00
11487;BME280;10510;47.942;9.442;2023-11-21T05:41:56;94075.34;;;4.47;100.00
11487;BME280;10510;47.942;9.442;2023-11-21T05:43:57;94071.78;;;4.48;100.00
11487;BME280;10510;47.942;9.442;2023-11-21T05:45:58;94075.19;;;4.49;100.00
11487;BME280;10510;47.942;9.442;2023-11-21T05:47:58;94077.63;;;4.50;100.00
11487;BME280;10510;47.942;9.442;2023-11-21T05:49:58;94082.78;;;4.50;100.00
11487;BME280;10510;47.942;9.442;2023-11-21T05:52:00;94084.41;;;4.51;100.00
11487;BME280;10510;47.942;9.442;2023-11-21T05:54:00;94090.38;;;4.52;100.00
11487;BME280;10510;47.942;9.442;2023-11-21T05:56:00;94087.66;;;4.53;100.00
11487;BME280;10510;47.942;9.442;2023-11-21T05:58:01;94092.66;;;4.55;100.00
11487;BME280;10510;47.942;9.442;2023-11-21T06:00:09;94092.31;;;4.58;100.00
11487;BME280;10510;47.942;9.442;2023-11-21T06:02:28;94096.38;;;4.61;100.00
11487;BME280;10510;47.942;9.442;2023-11-21T06:04:28;94092.00;;;4.61;100.00
11487;BME280;10510;47.942;9.442;2023-11-21T06:06:29;94098.66;;;4.64;100.00
11487;BME280;10510;47.942;9.442;2023-11-21T06:08:29;94097.69;;;4.65;100.00
11487;BME280;10510;47.942;9.442;2023-11-21T06:10:29;94094.28;;;4.64;100.00
11487;BME280;10510;47.942;9.442;2023-11-21T06:12:29;94101.72;;;4.67;100.00
11487;BME280;10510;47.942;9.442;2023-11-21T06:14:31;94105.16;;;4.68;100.00
11487;BME280;10510;47.942;9.442;2023-11-21T06:16:33;94101.72;;;4.67;100.00
11487;BME280;10510;47.942;9.442;2023-11-21T06:18:33;94107.88;;;4.66;100.00
11487;BME280;10510;47.942;9.442;2023-11-21T06:20:35;94111.28;;;4.67;100.00
11487;BME280;10510;47.942;9.442;2023-11-21T06:22:38;94112.25;;;4.66;100.00
11487;BME280;10510;47.942;9.442;2023-11-21T06:24:38;94112.25;;;4.66;100.00
11487;BME280;10510;47.942;9.442;2023-11-21T06:26:38;94111.28;;;4.67;100.00
11487;BME280;10510;47.942;9.442;2023-11-21T06:28:39;94117.44;;;4.66;100.00
11487;BME280;10510;47.942;9.442;2023-11-21T06:30:39;94124.22;;;4.67;100.00
11487;BME280;10510;47.942;9.442;2023-11-21T06:32:39;94114.66;;;4.67;100.00
11487;BME280;10510;47.942;9.442;2023-11-21T06:34:40;94114.53;;;4.69;100.00
11487;BME280;10510;47.942;9.442;2023-11-21T06:36:40;94114.34;;;4.70;100.00
11487;BME280;10510;47.942;9.442;2023-11-21T06:38:40;94115.81;;;4.73;100.00
11487;BME280;10510;47.942;9.442;2023-11-21T06:40:40;94118.41;;;4.73;100.00
11487;BME280;10510;47.942;9.442;2023-11-21T06:42:41;94114.84;;;4.74;100.00
11487;BME280;10510;47.942;9.442;2023-11-21T06:44:41;94109.69;;;4.74;100.00
11487;BME280;10510;47.942;9.442;2023-11-21T06:46:41;94115.66;;;4.74;100.00
11487;BME280;10510;47.942;9.442;2023-11-21T06:48:42;94116.47;;;4.75;100.00
11487;BME280;10510;47.942;9.442;2023-11-21T06:50:43;94116.47;;;4.75;100.00
11487;BME280;10510;47.942;9.442;2023-11-21T06:52:43;94121.66;;;4.75;100.00
11487;BME280;10510;47.942;9.442;2023-11-21T06:54:43;94124.72;;;4.78;100.00
11487;BME280;10510;47.942;9.442;2023-11-21T06:56:44;94125.38;;;4.81;100.00
11487;BME280;10510;47.942;9.442;2023-11-21T06:58:45;94133.94;;;4.81;100.00
11487;BME280;10510;47.942;9.442;2023-11-21T07:00:46;94141.41;;;4.84;100.00
11487;BME280;10510;47.942;9.442;2023-11-21T07:02:46;94140.41;;;4.85;100.00
11487;BME280;10510;47.942;9.442;2023-11-21T07:04:47;94139.47;;;4.86;100.00
11487;BME280;10510;47.942;9.442;2023-11-21T07:06:47;94135.91;;;4.87;100.00
11487;BME280;10510;47.942;9.442;2023-11-21T07:08:47;94140.94;;;4.89;100.00
11487;BME280;10510;47.942;9.442;2023-11-21T07:10:48;94141.56;;;4.91;100.00
11487;BME280;10510;47.942;9.442;2023-11-21T07:12:49;94148.38;;;4.92;100.00
11487;BME280;10510;47.942;9.442;2023-11-21T07:14:51;94148.19;;;4.93;100.00
11487;BME280;10510;47.942;9.442;2023-11-21T07:16:51;94152.44;;;4.94;100.00
11487;BME280;10510;47.942;9.442;2023-11-21T07:18:52;94148.84;;;4.95;100.00
11487;BME280;10510;47.942;9.442;2023-11-21T07:20:55;94154.03;;;4.95;100.00
11487;BME280;10510;47.942;9.442;2023-11-21T07:22:55;94151.28;;;4.97;100.00
11487;BME280;10510;47.942;9.442;2023-11-21T07:24:56;94151.78;;;5.00;100.00
11487;BME280;10510;47.942;9.442;2023-11-21T07:26:59;94141.09;;;5.04;100.00
11487;BME280;10510;47.942;9.442;2023-11-21T07:29:00;94146.75;;;5.07;100.00
11487;BME280;10510;47.942;9.442;2023-11-21T07:31:00;94144.00;;;5.09;100.00
11487;BME280;10510;47.942;9.442;2023-11-21T07:33:01;94150.81;;;5.10;100.00
11487;BME280;10510;47.942;9.442;2023-11-21T07:35:01;94150.50;;;5.13;100.00
11487;BME280;10510;47.942;9.442;2023-11-21T07:37:02;94153.56;;;5.16;100.00
11487;BME280;10510;47.942;9.442;2023-11-21T07:39:02;94151.94;;;5.15;100.00
11487;BME280;10510;47.942;9.442;2023-11-21T07:41:03;94162.13;;;5.17;100.00
11487;BME280;10510;47.942;9.442;2023-11-21T07:43:03;94154.38;;;5.17;100.00
11487;BME280;10510;47.942;9.442;2023-11-21T07:45:06;94159.53;;;5.17;100.00
11487;BME280;10510;47.942;9.442;2023-11-21T07:47:07;94160.19;;;5.19;100.00
11487;BME280;10510;47.942;9.442;2023-11-21T07:49:07;94161.81;;;5.20;100.00
11487;BME280;10510;47.942;9.442;2023-11-21T07:51:08;94155.81;;;5.19;100.00
11487;BME280;10510;47.942;9.442;2023-11-21T07:53:08;94158.28;;;5.21;100.00
11487;BME280;10510;47.942;9.442;2023-11-21T07:55:09;94158.91;;;5.23;100.00
11487;BME280;10510;47.942;9.442;2023-11-21T07:57:10;94163.75;;;5.26;100.00
11487;BME280;10510;47.942;9.442;2023-11-21T07:59:13;94162.47;;;5.30;100.00
11487;BME280;10510;47.942;9.442;2023-11-21T08:01:14;94157.78;;;5.34;100.00
11487;BME280;10510;47.942;9.442;2023-11-21T08:03:14;94164.41;;;5.36;100.00
11487;BME280;10510;47.942;9.442;2023-11-21T08:05:14;94161.50;;;5.39;100.00
11487;BME280;10510;47.942;9.442;2023-11-21T08:07:17;94161.00;;;5.44;100.00
11487;BME280;10510;47.942;9.442;2023-11-21T08:09:17;94163.09;;;5.49;100.00
11487;BME280;10510;47.942;9.442;2023-11-21T08:11:17;94162.13;;;5.58;100.00
11487;BME280;10510;47.942;9.442;2023-11-21T08:13:19;94159.50;;;5.74;100.00
11487;BME280;10510;47.942;9.442;2023-11-21T08:15:19;94161.91;;;5.92;100.00
11487;BME280;10510;47.942;9.442;2023-11-21T08:17:20;94162.38;;;6.12;100.00
11487;BME280;10510;47.942;9.442;2023-11-21T08:19:20;94163.78;;;6.23;100.00
11487;BME280;10510;47.942;9.442;2023-11-21T08:21:21;94170.53;;;6.40;100.00
11487;BME280;10510;47.942;9.442;2023-11-21T08:23:23;94163.16;;;6.52;100.00
11487;BME280;10510;47.942;9.442;2023-11-21T08:25:26;94156.88;;;6.46;100.00
11487;BME280;10510;47.942;9.442;2023-11-21T08:27:27;94172.47;;;6.38;100.00
11487;BME280;10510;47.942;9.442;2023-11-21T08:29:27;94177.50;;;6.40;100.00
11487;BME280;10510;47.942;9.442;2023-11-21T08:31:28;94177.81;;;6.45;100.00
11487;BME280;10510;47.942;9.442;2023-11-21T08:33:28;94171.75;;;6.52;100.00
11487;BME280;10510;47.942;9.442;2023-11-21T08:35:29;94168.78;;;6.64;100.00
11487;BME280;10510;47.942;9.442;2023-11-21T08:37:30;94167.16;;;6.71;100.00
11487;BME280;10510;47.942;9.442;2023-11-21T08:39:30;94168.78;;;6.95;100.00
11487;BME280;10510;47.942;9.442;2023-11-21T08:41:30;94169.09;;;7.61;100.00
11487;BME280;10510;47.942;9.442;2023-11-21T08:43:31;94170.72;;;10.51;100.00
11487;BME280;10510;47.942;9.442;2023-11-21T08:45:31;94170.84;;;11.85;100.00
11487;BME280;10510;47.942;9.442;2023-11-21T08:47:34;94171.75;;;12.44;100.00
11487;BME280;10510;47.942;9.442;2023-11-21T08:49:36;94174.16;;;11.12;100.00
11487;BME280;10510;47.942;9.442;2023-11-21T08:51:38;94181.88;;;10.03;100.00
11487;BME280;10510;47.942;9.442;2023-11-21T08:53:39;94180.03;;;9.47;100.00
11487;BME280;10510;47.942;9.442;2023-11-21T08:55:39;94169.97;;;9.23;100.00
11487;BME280;10510;47.942;9.442;2023-11-21T08:57:40;94166.44;;;9.30;100.00
11487;BME280;10510;47.942;9.442;2023-11-21T08:59:41;94169.22;;;9.50;100.00
11487;BME280;10510;47.942;9.442;2023-11-21T09:01:41;94174.81;;;9.47;100.00
11487;BME280;10510;47.942;9.442;2023-11-21T09:03:42;94170.84;;;9.51;100.00
11487;BME280;10510;47.942;9.442;2023-11-21T09:05:43;94179.47;;;9.09;100.00
11487;BME280;10510;47.942;9.442;2023-11-21T09:07:44;94180.97;;;8.82;100.00
11487;BME280;10510;47.942;9.442;2023-11-21T09:09:47;94181.28;;;8.57;100.00
11487;BME280;10510;47.942;9.442;2023-11-21T09:11:47;94178.78;;;8.49;100.00
11487;BME280;10510;47.942;9.442;2023-11-21T09:13:49;94176.72;;;8.45;100.00
11487;BME280;10510;47.942;9.442;2023-11-21T09:15:51;94191.97;;;8.33;100.00
11487;BME280;10510;47.942;9.442;2023-11-21T09:17:51;94192.22;;;8.38;100.00
11487;BME280;10510;47.942;9.442;2023-11-21T09:19:51;94195.88;;;7.99;100.00
11487;BME280;10510;47.942;9.442;2023-11-21T09:21:51;94195.00;;;7.54;100.00
11487;BME280;10510;47.942;9.442;2023-11-21T09:23:52;94197.84;;;7.21;100.00
11487;BME280;10510;47.942;9.442;2023-11-21T09:25:52;94201.63;;;7.11;100.00
11487;BME280;10510;47.942;9.442;2023-11-21T09:27:56;94208.19;;;7.07;100.00
11487;BME280;10510;47.942;9.442;2023-11-21T09:29:57;94206.16;;;7.17;100.00
11487;BME280;10510;47.942;9.442;2023-11-21T09:31:58;94203.66;;;7.46;100.00
11487;BME280;10510;47.942;9.442;2023-11-21T09:33:59;94200.16;;;7.77;100.00
11487;BME280;10510;47.942;9.442;2023-11-21T09:35:59;94203.09;;;8.12;100.00
11487;BME280;10510;47.942;9.442;2023-11-21T09:38:00;94208.38;;;8.78;100.00
11487;BME280;10510;47.942;9.442;2023-11-21T09:40:02;94215.28;;;9.22;100.00
11487;BME280;10510;47.942;9.442;2023-11-21T09:42:12;94211.78;;;10.00;100.00
11487;BME280;10510;47.942;9.442;2023-11-21T09:44:13;94209.75;;;9.74;100.00
11487;BME280;10510;47.942;9.442;2023-11-21T09:46:16;94211.50;;;9.46;100.00
11487;BME280;10510;47.942;9.442;2023-11-21T09:48:21;94212.16;;;9.12;100.00
11487;BME280;10510;47.942;9.442;2023-11-21T09:50:25;94216.03;;;8.64;100.00
11487;BME280;10510;47.942;9.442;2023-11-21T09:52:28;94218.44;;;8.22;100.00
11487;BME280;10510;47.942;9.442;2023-11-21T09:54:30;94224.41;;;7.92;100.00
11487;BME280;10510;47.942;9.442;2023-11-21T09:56:32;94221.78;;;7.78;100.00
11487;BME280;10510;47.942;9.442;2023-11-21T09:58:32;94215.19;;;7.67;100.00
11487;BME280;10510;47.942;9.442;2023-11-21T10:00:34;94214.09;;;7.61;100.00
11487;BME280;10510;47.942;9.442;2023-11-21T10:02:35;94215.56;;;7.64;100.00
11487;BME280;10510;47.942;9.442;2023-11-21T10:04:36;94213.25;;;7.69;100.00
11487;BME280;10510;47.942;9.442;2023-11-21T10:06:37;94211.13;;;7.87;100.00
11487;BME280;10510;47.942;9.442;2023-11-21T10:08:38;94207.22;;;8.36;100.00
11487;BME280;10510;47.942;9.442;2023-11-21T10:10:46;94204.59;;;9.17;100.00
11487;BME280;10510;47.942;9.442;2023-11-21T10:12:54;94200.09;;;11.01;100.00
11487;BME280;10510;47.942;9.442;2023-11-21T10:14:57;94199.84;;;11.97;100.00
11487;BME280;10510;47.942;9.442;2023-11-21T10:17:00;94198.84;;;12.04;100.00
11487;BME280;10510;47.942;9.442;2023-11-21T10:19:03;94199.66;;;13.42;100.00
11487;BME280;10510;47.942;9.442;2023-11-21T10:21:04;94198.16;;;15.08;100.00
11487;BME280;10510;47.942;9.442;2023-11-21T10:23:06;94194.19;;;15.35;100.00
11487;BME280;10510;47.942;9.442;2023-11-21T10:25:10;94191.47;;;13.11;100.00
11487;BME280;10510;47.942;9.442;2023-11-21T10:27:11;94190.97;;;12.18;100.00
11487;BME280;10510;47.942;9.442;2023-11-21T10:29:14;94185.75;;;13.34;100.00
11487;BME280;10510;47.942;9.442;2023-11-21T10:31:16;94181.56;;;13.27;100.00
11487;BME280;10510;47.942;9.442;2023-11-21T10:33:17;94173.66;;;13.65;100.00
11487;BME280;10510;47.942;9.442;2023-11-21T10:35:17;94170.06;;;12.69;100.00
11487;BME280;10510;47.942;9.442;2023-11-21T10:37:17;94176.25;;;11.70;100.00
11487;BME280;10510;47.942;9.442;2023-11-21T10:39:19;94174.72;;;10.95;100.00
11487;BME280;10510;47.942;9.442;2023-11-21T10:41:20;94181.91;;;10.38;100.00